Oakland, California
Current Conditions -  °F | °C
As of 8:53 PM on Sunday 19 Oct 2014 (Local Time) from KOAK Reporting Station
Broken Clouds Broken Clouds  
Wind Chill: 17°   Ceiling: 1300
Heat Index: 17°   Visibility: 10mi
Dew Point: 14°   Wind: 8mph
Humidity: 81%   Direction: 300°WNW
Pressure: 29.9"   Gusts: NA
Location:  37.81°N, 122.27°W
Report Text: KOAK 200353Z 30007KT 10SM FEW010 BKN013 17/14 A2990 RMK AO2 SLP123 T01720139
Loading
Personal Weather Stations






























Interactive Weather Map
Tropical Storm Tracking
New forecast layout! Learn more

10-Day Weather Forecast

Advertisements
Track Severe Weather on mobile